Time;durP1;ratioP1;P1;durP2;ratioP2;P2;SDS_P1;SDS_P2;PMS_P1;PMS_P2;Temp;Humidity;BMP_temperature;BMP_pressure;BME280_temperature;BME280_humidity;BME280_pressure;Samples;Min_cycle;Max_cycle;Signal;HPM_P1;HPM_P2
2022/10/26 00:01:18;;;;;;;39.30;17.58;;;;;;;8.65;100.00;101014.50;4936641;29;20493;-72
2022/10/26 00:03:44;;;;;;;36.92;18.92;;;;;;;8.81;100.00;101010.41;4932384;29;20477;-73
2022/10/26 00:06:18;;;;;;;44.08;20.58;;;;;;;8.85;100.00;101017.97;4936888;29;20349;-73
2022/10/26 00:08:45;;;;;;;48.80;19.77;;;;;;;8.97;100.00;101025.81;4937020;29;20123;-73
2022/10/26 00:11:11;;;;;;;;;;;;;;;9.08;100.00;101028.25;4938563;29;20406;-73
2022/10/26 00:13:37;;;;;;;51.08;21.48;;;;;;;9.11;100.00;101029.78;4935908;28;19925;-73
2022/10/26 00:16:11;;;;;;;50.97;23.00;;;;;;;9.15;100.00;101031.19;4938359;29;20111;-73
2022/10/26 00:18:37;;;;;;;46.42;21.65;;;;;;;9.07;100.00;101027.44;4934725;29;20046;-72
2022/10/26 00:21:04;;;;;;;52.75;22.45;;;;;;;8.97;100.00;101025.81;4941728;28;20035;-73
2022/10/26 00:23:30;;;;;;;40.03;19.30;;;;;;;8.80;100.00;101020.25;4935968;28;20039;-73
2022/10/26 00:25:56;;;;;;;46.65;22.63;;;;;;;8.71;100.00;101025.56;4932683;29;20040;-73
2022/10/26 00:28:21;;;;;;;43.45;20.23;;;;;;;8.60;100.00;101023.91;4935464;29;20050;-73
2022/10/26 00:30:47;;;;;;;48.07;22.53;;;;;;;8.66;100.00;101020.66;4932544;29;20032;-72
2022/10/26 00:33:12;;;;;;;57.43;21.50;;;;;;;8.76;100.00;101024.16;4939610;29;20039;-72
2022/10/26 00:35:38;;;;;;;57.20;23.98;;;;;;;8.86;100.00;101034.78;4933504;29;20039;-76
2022/10/26 00:38:03;;;;;;;52.70;21.53;;;;;;;9.02;100.00;101035.03;4937632;29;20051;-75
2022/10/26 00:40:29;;;;;;;57.90;24.83;;;;;;;9.13;100.00;101042.00;4934843;28;20086;-73
2022/10/26 00:42:54;;;;;;;55.93;25.13;;;;;;;9.18;100.00;101039.75;4933769;29;20086;-73
2022/10/26 00:45:24;;;;;;;47.53;23.13;;;;;;;9.27;100.00;101044.19;4939556;28;20063;-73
2022/10/26 00:47:55;;;;;;;50.22;24.80;;;;;;;9.29;100.00;101042.22;4932739;29;20063;-74
2022/10/26 00:50:25;;;;;;;55.80;22.13;;;;;;;9.28;100.00;101045.84;4926723;29;20046;-73
2022/10/26 00:52:52;;;;;;;58.80;23.60;;;;;;;9.32;100.00;101045.53;4937483;29;20473;-73
2022/10/26 00:55:22;;;;;;;56.85;24.05;;;;;;;9.38;100.00;101042.31;4939348;29;20058;-72
2022/10/26 00:57:49;;;;;;;47.97;22.38;;;;;;;9.36;100.00;101041.63;4938732;29;20058;-72
2022/10/26 01:00:15;;;;;;;50.65;23.70;;;;;;;9.35;100.00;101037.28;4939392;29;20155;-73
2022/10/26 01:02:41;;;;;;;48.78;23.08;;;;;;;9.33;100.00;101031.25;4932675;28;20097;-73
2022/10/26 01:05:07;;;;;;;;;;;;;;;9.35;100.00;101029.28;4932221;29;20484;-73
2022/10/26 01:07:33;;;;;;;;;;;;;;;9.36;100.00;101030.94;4937808;29;20328;-73
2022/10/26 01:10:00;;;;;;;50.75;22.50;;;;;;;9.33;100.00;101026.75;4933314;29;20021;-73
2022/10/26 01:12:25;;;;;;;56.63;24.08;;;;;;;9.26;100.00;101033.66;4927166;29;20125;-73
2022/10/26 01:14:50;;;;;;;50.50;23.20;;;;;;;9.18;100.00;101029.06;4937266;28;20044;-74
2022/10/26 01:17:30;;;;;;;48.13;23.37;;;;;;;9.15;100.00;101040.00;4918181;29;20409;-73
2022/10/26 01:20:20;;;;;;;42.05;20.33;;;;;;;9.08;100.00;101033.59;4937201;29;20093;-73
2022/10/26 01:23:00;;;;;;;42.15;19.42;;;;;;;9.02;100.00;101029.69;4936208;29;20050;-72
2022/10/26 01:25:56;;;;;;;41.10;19.17;;;;;;;8.94;100.00;101020.75;4933023;29;20063;-73
2022/10/26 01:28:38;;;;;;;38.92;18.85;;;;;;;8.90;100.00;101014.88;4941437;28;20102;-73
2022/10/26 01:31:10;;;;;;;41.63;20.13;;;;;;;8.78;100.00;101018.69;4924606;29;20147;-73
2022/10/26 01:33:35;;;;;;;45.08;19.48;;;;;;;8.73;100.00;101012.94;4934444;28;20057;-73
2022/10/26 01:36:12;;;;;;;38.73;19.10;;;;;;;8.66;100.00;101008.22;4935469;29;20548;-73
2022/10/26 01:38:59;;;;;;;40.25;19.08;;;;;;;8.61;100.00;101005.13;4932276;28;20058;-73
2022/10/26 01:41:43;;;;;;;35.75;17.90;;;;;;;8.59;100.00;101011.56;4935529;29;20039;-73
2022/10/26 01:44:16;;;;;;;43.22;18.52;;;;;;;8.54;100.00;101000.53;4942539;28;20039;-73
2022/10/26 01:46:45;;;;;;;36.78;17.63;;;;;;;8.51;100.00;100998.16;4931592;29;20043;-73
2022/10/26 01:49:13;;;;;;;41.63;18.70;;;;;;;8.48;100.00;101009.09;4934264;29;20016;-72
2022/10/26 01:51:41;;;;;;;49.42;22.17;;;;;;;8.55;100.00;100996.91;4930126;28;20452;-73
2022/10/26 01:54:07;;;;;;;38.08;19.45;;;;;;;8.58;100.00;100999.28;4943646;28;20031;-73
2022/10/26 01:56:39;;;;;;;48.50;22.23;;;;;;;8.59;100.00;101003.59;4937828;28;20039;-73
2022/10/26 01:59:38;;;;;;;50.20;21.75;;;;;;;8.62;100.00;101003.31;4935898;28;20454;-73
2022/10/26 02:02:22;;;;;;;44.92;20.45;;;;;;;8.61;100.00;100996.31;4918104;29;20093;-75
2022/10/26 02:05:07;;;;;;;53.53;23.63;;;;;;;8.63;100.00;100997.84;4948694;28;20552;-75
2022/10/26 02:07:43;;;;;;;62.42;23.15;;;;;;;8.64;100.00;100993.38;4932673;29;20047;-75
2022/10/26 02:10:24;;;;;;;55.37;23.30;;;;;;;8.71;100.00;100994.47;4933683;29;20067;-75
2022/10/26 02:13:29;;;;;;;55.40;23.02;;;;;;;8.73;100.00;100996.97;4947055;28;20110;-75
2022/10/26 02:16:30;;;;;;;66.65;23.92;;;;;;;8.65;100.00;100995.03;4935722;29;20067;-75
2022/10/26 02:19:05;;;;;;;64.63;25.70;;;;;;;8.64;100.00;100993.38;4934887;29;20122;-75
2022/10/26 02:21:39;;;;;;;55.20;25.90;;;;;;;8.57;100.00;100994.91;4932059;29;20481;-75
2022/10/26 02:24:07;;;;;;;63.60;27.10;;;;;;;8.54;100.00;100992.53;4933221;29;20027;-75
2022/10/26 02:26:34;;;;;;;58.55;23.50;;;;;;;8.47;100.00;100986.94;4933912;28;20035;-76
2022/10/26 02:29:06;;;;;;;50.13;21.08;;;;;;;8.33;100.00;100990.03;4934755;29;20036;-73
2022/10/26 02:31:33;;;;;;;50.78;22.42;;;;;;;8.19;100.00;100986.84;4936720;28;20450;-73
2022/10/26 02:34:02;;;;;;;53.67;22.98;;;;;;;8.03;100.00;100981.25;4939953;29;20023;-73
2022/10/26 02:36:30;;;;;;;61.33;23.27;;;;;;;7.97;100.00;100973.81;4930061;29;20035;-73
2022/10/26 02:38:58;;;;;;;53.80;23.15;;;;;;;7.93;100.00;100970.59;4944267;28;20200;-73
2022/10/26 02:41:27;;;;;;;44.72;20.40;;;;;;;7.85;100.00;100970.47;4941044;29;20468;-73
2022/10/26 02:43:59;;;;;;;43.72;20.17;;;;;;;7.79;100.00;100960.38;4938929;29;20481;-73
2022/10/26 02:46:26;;;;;;;59.17;23.05;;;;;;;7.79;100.00;100960.38;4929616;29;20043;-73
2022/10/26 02:48:52;;;;;;;46.33;21.63;;;;;;;7.73;100.00;100956.47;4939714;29;20039;-72
2022/10/26 02:51:42;;;;;;;48.35;19.52;;;;;;;7.67;100.00;100961.50;4938284;29;20036;-73
2022/10/26 02:54:14;;;;;;;53.28;22.02;;;;;;;7.74;100.00;100957.28;4934778;29;20042;-73
2022/10/26 02:56:46;;;;;;;39.40;19.73;;;;;;;7.67;100.00;100951.69;4936008;28;20059;-75
2022/10/26 02:59:14;;;;;;;41.45;19.60;;;;;;;7.59;100.00;100948.91;4927824;29;20445;-75
2022/10/26 03:01:40;;;;;;;43.45;20.00;;;;;;;7.55;100.00;100948.31;4944983;28;20036;-75
2022/10/26 03:04:06;;;;;;;37.85;18.17;;;;;;;7.47;100.00;100952.63;4940368;28;20059;-75
2022/10/26 03:06:31;;;;;;;35.03;18.65;;;;;;;7.32;100.00;100947.72;4935233;29;20571;-75
2022/10/26 03:08:57;;;;;;;34.33;17.40;;;;;;;7.29;100.00;100939.19;4913305;29;20492;-75
2022/10/26 03:11:22;;;;;;;36.63;17.53;;;;;;;7.31;100.00;100943.41;4938330;29;20062;-75
2022/10/26 03:13:47;;;;;;;38.87;17.93;;;;;;;7.33;100.00;100937.97;4934656;29;20595;-73
2022/10/26 03:16:13;;;;;;;49.97;22.07;;;;;;;7.32;100.00;100944.22;4941180;28;20078;-73
2022/10/26 03:18:38;;;;;;;57.90;22.07;;;;;;;7.26;100.00;100940.31;4926659;29;20110;-73
2022/10/26 03:21:04;;;;;;;55.13;23.40;;;;;;;7.29;100.00;100942.69;4934539;29;20399;-73
2022/10/26 03:23:29;;;;;;;48.58;20.00;;;;;;;7.23;100.00;100939.72;4937292;28;20039;-73
2022/10/26 03:25:58;;;;;;;42.40;19.27;;;;;;;7.21;100.00;100939.03;4949070;28;20035;-72
2022/10/26 03:28:24;;;;;;;49.25;22.65;;;;;;;7.22;100.00;100946.03;4940282;29;20430;-72
2022/10/26 03:30:49;;;;;;;44.88;20.40;;;;;;;7.20;100.00;100935.53;4941809;29;20027;-73
2022/10/26 03:33:15;;;;;;;46.00;21.57;;;;;;;7.18;100.00;100940.97;4938434;28;20067;-73
2022/10/26 03:35:40;;;;;;;57.63;22.57;;;;;;;7.28;100.00;100946.34;4934923;28;20396;-73
2022/10/26 03:38:05;;;;;;;47.00;22.23;;;;;;;7.27;100.00;100944.63;4935701;28;20094;-73
2022/10/26 03:40:31;;;;;;;54.33;21.80;;;;;;;7.34;100.00;100950.25;4936809;28;20059;-73
2022/10/26 03:42:56;;;;;;;46.50;21.30;;;;;;;7.23;100.00;100945.03;4937101;29;20050;-72
2022/10/26 03:45:21;;;;;;;53.30;21.83;;;;;;;7.16;100.00;100945.59;4928286;29;20034;-73
2022/10/26 03:47:48;;;;;;;43.00;19.13;;;;;;;7.07;100.00;100949.06;4942675;29;20039;-72
2022/10/26 03:50:16;;;;;;;39.25;18.20;;;;;;;7.03;100.00;100952.13;4941688;29;20020;-72
2022/10/26 03:52:42;;;;;;;43.75;19.52;;;;;;;7.00;100.00;100949.72;4933818;29;20111;-72
2022/10/26 03:55:09;;;;;;;47.90;20.15;;;;;;;6.99;100.00;100956.84;4933240;29;20362;-73
2022/10/26 03:57:38;;;;;;;;;;;;;;;7.10;100.00;100959.41;4938900;28;20259;-72
2022/10/26 04:00:04;;;;;;;63.28;26.00;;;;;;;7.14;100.00;100944.91;4935086;29;20427;-73
2022/10/26 04:02:37;;;;;;;46.88;21.27;;;;;;;7.09;100.00;100957.72;4930017;29;20291;-72
2022/10/26 04:05:02;;;;;;;49.77;22.60;;;;;;;7.04;100.00;100959.94;4931723;29;20086;-72
2022/10/26 04:07:28;;;;;;;42.95;20.08;;;;;;;7.11;100.00;100962.91;4940353;28;20496;-72
2022/10/26 04:09:53;;;;;;;50.13;22.03;;;;;;;7.05;100.00;100966.09;4938021;29;20402;-73
2022/10/26 04:12:18;;;;;;;65.73;26.77;;;;;;;7.08;100.00;100971.13;4935301;29;20094;-73
2022/10/26 04:14:44;;;;;;;53.90;22.33;;;;;;;7.15;100.00;100978.44;4938481;28;20046;-73
2022/10/26 04:17:09;;;;;;;69.73;26.87;;;;;;;7.21;100.00;100966.44;4916672;29;20065;-73
2022/10/26 04:19:35;;;;;;;51.50;23.60;;;;;;;7.18;100.00;100967.53;4938550;28;20296;-72
2022/10/26 04:22:00;;;;;;;53.90;22.90;;;;;;;7.14;100.00;100966.13;4937669;28;20024;-73
2022/10/26 04:24:25;;;;;;;55.07;24.43;;;;;;;7.23;100.00;100971.59;4939311;29;20119;-72
2022/10/26 04:26:51;;;;;;;73.20;29.40;;;;;;;7.43;100.00;100972.50;4944074;28;20096;-73
2022/10/26 04:29:16;;;;;;;62.47;28.23;;;;;;;7.44;100.00;100971.50;4938762;29;20031;-73
2022/10/26 04:31:42;;;;;;;73.83;28.77;;;;;;;7.35;100.00;100968.72;4934683;28;20493;-73
2022/10/26 04:34:07;;;;;;;67.55;28.00;;;;;;;7.39;100.00;100970.09;4934932;29;20486;-73
2022/10/26 04:36:33;;;;;;;80.83;31.03;;;;;;;7.44;100.00;100979.47;4939186;28;20042;-73
2022/10/26 04:38:59;;;;;;;71.97;32.30;;;;;;;7.65;100.00;100976.72;4936060;29;20035;-73
2022/10/26 04:41:25;;;;;;;72.35;30.42;;;;;;;7.57;100.00;100978.25;4936546;29;20082;-72
2022/10/26 04:43:50;;;;;;;67.40;28.97;;;;;;;7.52;100.00;100979.66;4933314;29;20254;-72
2022/10/26 04:46:15;;;;;;;79.07;32.93;;;;;;;7.54;100.00;100983.84;4938171;29;20783;-72
2022/10/26 04:48:40;;;;;;;71.00;29.73;;;;;;;7.60;100.00;100988.59;4938262;28;20630;-73
2022/10/26 04:51:06;;;;;;;81.17;32.10;;;;;;;7.74;100.00;100998.00;4932237;29;20069;-73
2022/10/26 04:53:32;;;;;;;80.40;33.07;;;;;;;7.64;100.00;100991.00;4935340;28;20066;-73
2022/10/26 04:56:00;;;;;;;94.68;35.45;;;;;;;7.78;100.00;100995.91;4931930;29;20039;-73
2022/10/26 04:58:27;;;;;;;84.50;32.95;;;;;;;7.82;100.00;100999.97;4939111;29;20043;-75
2022/10/26 05:00:53;;;;;;;82.38;33.28;;;;;;;7.91;100.00;101003.59;4935368;29;20109;-75
2022/10/26 05:03:18;;;;;;;91.95;34.88;;;;;;;7.85;100.00;100994.38;4933260;29;20036;-75
2022/10/26 05:05:44;;;;;;;79.57;34.55;;;;;;;7.92;100.00;101002.66;4932688;29;20448;-75
2022/10/26 05:08:09;;;;;;;78.97;31.33;;;;;;;7.87;100.00;100994.25;4934148;29;20103;-75
2022/10/26 05:10:34;;;;;;;88.90;32.97;;;;;;;7.88;100.00;101007.38;4935613;28;20468;-75
2022/10/26 05:13:01;;;;;;;91.83;34.20;;;;;;;7.82;100.00;101002.66;4933731;29;20457;-73
2022/10/26 05:15:27;;;;;;;83.30;32.70;;;;;;;7.69;100.00;100994.91;4929534;29;20024;-73
2022/10/26 05:17:58;;;;;;;73.68;28.65;;;;;;;7.51;100.00;100989.41;4939850;28;20114;-73
2022/10/26 05:20:28;;;;;;;67.90;29.55;;;;;;;7.31;100.00;100987.72;4935973;29;20390;-73
2022/10/26 05:22:55;;;;;;;73.40;27.98;;;;;;;7.13;100.00;100985.69;4932230;29;20114;-73
2022/10/26 05:25:21;;;;;;;60.35;25.58;;;;;;;7.05;100.00;100977.56;4935359;28;20027;-73
2022/10/26 05:27:46;;;;;;;68.43;27.83;;;;;;;6.92;100.00;100977.78;4934180;29;20510;-72
2022/10/26 05:30:11;;;;;;;59.30;26.10;;;;;;;6.95;100.00;100982.84;4934811;29;20060;-73
2022/10/26 05:32:37;;;;;;;59.27;26.37;;;;;;;6.84;100.00;100982.09;4937647;28;20045;-73
2022/10/26 05:35:02;;;;;;;51.90;24.83;;;;;;;6.82;100.00;100981.38;4936142;29;20053;-73
2022/10/26 05:37:28;;;;;;;53.83;22.90;;;;;;;6.70;100.00;100984.09;4942589;28;20115;-72
2022/10/26 05:39:54;;;;;;;55.03;22.00;;;;;;;6.60;100.00;100979.69;4923654;29;20393;-73
2022/10/26 05:42:19;;;;;;;45.07;22.10;;;;;;;6.52;100.00;100980.38;4917442;29;20027;-73
2022/10/26 05:44:45;;;;;;;52.17;23.10;;;;;;;6.50;100.00;100985.78;4939225;29;20034;-73
2022/10/26 05:47:10;;;;;;;43.53;21.23;;;;;;;6.52;100.00;100977.72;4932828;29;20725;-73
2022/10/26 05:49:35;;;;;;;62.33;24.50;;;;;;;6.53;100.00;100982.03;4930656;28;20510;-73
2022/10/26 05:52:01;;;;;;;41.70;21.13;;;;;;;6.43;100.00;100983.78;4928374;29;20907;-72
2022/10/26 05:54:26;;;;;;;48.90;20.57;;;;;;;6.33;100.00;100981.91;4928368;29;20046;-72
2022/10/26 05:56:52;;;;;;;41.20;20.17;;;;;;;6.31;100.00;100986.50;4926392;29;20063;-73
2022/10/26 05:59:17;;;;;;;46.58;22.35;;;;;;;6.34;100.00;100988.91;4928356;29;20437;-72
2022/10/26 06:01:56;;;;;;;60.65;31.75;;;;;;;6.32;100.00;100980.25;4928621;29;20039;-72
2022/10/26 06:04:37;;;;;;;48.85;24.83;;;;;;;6.31;100.00;100978.56;4936099;28;20078;-72
2022/10/26 06:07:09;;;;;;;52.85;22.38;;;;;;;6.38;100.00;100988.66;4930527;29;20631;-75
2022/10/26 06:09:35;;;;;;;57.33;23.75;;;;;;;6.32;100.00;100990.84;4930920;29;20087;-75
2022/10/26 06:12:00;;;;;;;37.08;18.63;;;;;;;6.26;100.00;100980.75;4914865;29;20035;-75
2022/10/26 06:14:26;;;;;;;37.22;17.73;;;;;;;6.21;100.00;100982.97;4930844;29;20036;-75
2022/10/26 06:17:03;;;;;;;49.45;21.27;;;;;;;6.30;100.00;100987.50;4941146;29;20042;-75
2022/10/26 06:20:16;;;;;;;55.35;23.02;;;;;;;6.64;100.00;100991.75;4951027;28;20129;-74
2022/10/26 06:23:17;;;;;;;46.05;20.60;;;;;;;6.65;100.00;100998.72;4929021;29;20042;-76
2022/10/26 06:25:45;;;;;;;45.58;20.00;;;;;;;6.70;100.00;101002.69;4924754;29;20073;-75
2022/10/26 06:28:22;;;;;;;37.17;18.98;;;;;;;6.61;100.00;100999.97;4949632;29;20023;-75
2022/10/26 06:30:47;;;;;;;35.80;17.85;;;;;;;6.66;100.00;101000.41;4949520;29;20506;-75
2022/10/26 06:33:14;;;;;;;44.50;19.43;;;;;;;6.72;100.00;101008.69;4946820;28;20055;-75
2022/10/26 06:35:39;;;;;;;;;;;;;;;6.80;100.00;101004.53;4936595;28;20302;-73
2022/10/26 06:38:17;;;;;;;59.03;22.95;;;;;;;7.04;100.00;101006.88;4914133;29;19910;-72
2022/10/26 06:40:46;;;;;;;53.05;23.60;;;;;;;7.18;100.00;101025.94;4931516;29;20090;-73
2022/10/26 06:43:24;;;;;;;41.20;20.30;;;;;;;7.16;100.00;101027.91;4931508;29;20023;-73
2022/10/26 06:46:24;;;;;;;36.58;18.38;;;;;;;7.17;100.00;101029.59;4929666;29;20126;-72
2022/10/26 06:48:59;;;;;;;41.80;18.77;;;;;;;7.21;100.00;101024.00;4923918;29;20069;-73
2022/10/26 06:51:26;;;;;;;49.17;21.20;;;;;;;7.19;100.00;101027.63;4942333;29;20126;-72
2022/10/26 06:54:04;;;;;;;60.25;24.67;;;;;;;7.22;100.00;101029.19;4931071;29;20032;-72
2022/10/26 06:56:30;;;;;;;48.33;22.63;;;;;;;7.48;100.00;101032.22;4929694;29;20511;-72
2022/10/26 06:59:05;;;;;;;;;;;;;;;7.82;100.00;101039.84;4948218;28;20424;-72
2022/10/26 07:01:31;;;;;;;45.63;22.40;;;;;;;8.21;100.00;101045.19;4950457;28;20579;-73
2022/10/26 07:03:56;;;;;;;42.10;19.83;;;;;;;8.49;100.00;101050.69;4942797;29;20074;-73
2022/10/26 07:06:21;;;;;;;35.20;18.20;;;;;;;8.55;100.00;101052.78;4930501;29;20135;-72
2022/10/26 07:08:47;;;;;;;34.67;17.30;;;;;;;8.79;100.00;101055.81;4929723;29;20520;-72
2022/10/26 07:11:12;;;;;;;36.37;17.50;;;;;;;9.13;100.00;101059.78;4932790;29;20489;-72
2022/10/26 07:13:38;;;;;;;30.83;16.40;;;;;;;9.44;100.00;101055.88;4939888;28;20031;-72
2022/10/26 07:16:03;;;;;;;27.77;14.87;;;;;;;9.75;100.00;101065.41;4930556;29;20098;-72
2022/10/26 07:18:28;;;;;;;26.33;14.83;;;;;;;10.10;100.00;101069.94;4913593;29;20032;-73
2022/10/26 07:20:54;;;;;;;24.53;13.93;;;;;;;9.80;100.00;101066.63;4949564;29;20314;-73
2022/10/26 07:23:21;;;;;;;26.35;13.85;;;;;;;10.38;100.00;101070.75;4948398;29;20066;-72
2022/10/26 07:25:47;;;;;;;17.90;11.85;;;;;;;10.48;100.00;101074.16;4949247;28;20039;-73
2022/10/26 07:28:12;;;;;;;19.50;11.40;;;;;;;10.77;100.00;101060.56;4948405;29;20407;-72
2022/10/26 07:30:39;;;;;;;19.17;11.15;;;;;;;10.72;100.00;101048.66;4949610;28;20062;-72
2022/10/26 07:33:05;;;;;;;18.48;10.82;;;;;;;11.12;100.00;101040.06;4949787;28;20111;-73
2022/10/26 07:35:34;;;;;;;15.65;10.32;;;;;;;11.20;100.00;101033.91;4948918;28;20038;-72
2022/10/26 07:38:00;;;;;;;14.57;9.77;;;;;;;11.25;100.00;101015.56;4914404;29;20035;-72
2022/10/26 07:40:26;;;;;;;15.05;9.05;;;;;;;11.36;100.00;101003.75;4941396;29;20035;-73
2022/10/26 07:42:54;;;;;;;18.50;9.23;;;;;;;11.56;100.00;100988.28;4949543;28;20042;-72
2022/10/26 07:45:20;;;;;;;16.70;8.80;;;;;;;11.89;100.00;100975.00;4949234;28;20030;-74
2022/10/26 07:47:45;;;;;;;11.33;8.10;;;;;;;12.62;100.00;100964.28;4931524;28;20482;-72
2022/10/26 07:50:11;;;;;;;14.32;8.25;;;;;;;13.23;100.00;100955.72;4930269;29;20895;-73
2022/10/26 07:52:40;;;;;;;10.55;7.47;;;;;;;12.92;100.00;100908.25;4928936;29;20040;-72
2022/10/26 07:55:06;;;;;;;10.95;7.57;;;;;;;13.33;100.00;100889.31;4932733;29;20071;-73
2022/10/26 07:57:32;;;;;;;13.23;7.13;;;;;;;13.79;100.00;100842.84;4930090;29;20048;-73
2022/10/26 07:59:58;;;;;;;10.73;7.13;;;;;;;14.19;100.00;100792.47;4930216;29;20378;-72
2022/10/26 08:02:23;;;;;;;12.93;7.90;;;;;;;14.20;100.00;100727.84;4933134;29;20082;-72
2022/10/26 08:04:48;;;;;;;22.07;9.07;;;;;;;14.64;100.00;100669.72;4929874;29;20055;-73
2022/10/26 08:07:14;;;;;;;11.80;7.40;;;;;;;14.97;100.00;100597.44;4929661;29;20114;-73
2022/10/26 08:09:39;;;;;;;12.93;8.40;;;;;;;15.01;100.00;100469.69;4929998;29;20124;-72
2022/10/26 08:12:04;;;;;;;14.83;6.57;;;;;;;15.47;100.00;100447.53;4912844;29;20063;-72
2022/10/26 08:14:30;;;;;;;9.23;6.33;;;;;;;15.52;100.00;100383.22;4930099;29;20086;-72
2022/10/26 08:16:55;;;;;;;8.63;6.53;;;;;;;16.20;100.00;100328.38;4928012;29;20085;-73
2022/10/26 08:19:21;;;;;;;10.37;7.30;;;;;;;16.43;100.00;100172.47;4935195;29;20039;-73
2022/10/26 08:21:47;;;;;;;10.80;7.75;;;;;;;16.66;100.00;100064.13;4945296;28;20043;-73
2022/10/26 08:24:12;;;;;;;11.93;6.87;;;;;;;16.66;100.00;100118.03;4927537;29;20036;-73
2022/10/26 08:26:37;;;;;;;10.80;7.33;;;;;;;17.22;100.00;100011.19;4929131;29;20034;-73
2022/10/26 08:29:03;;;;;;;12.20;7.00;;;;;;;16.96;100.00;100006.06;4929683;29;20494;-73
2022/10/26 08:31:28;;;;;;;14.23;7.18;;;;;;;17.92;100.00;99996.47;4921845;29;20440;-73
2022/10/26 08:33:54;;;;;;;15.47;7.90;;;;;;;18.12;100.00;99839.50;4929143;29;20031;-73
2022/10/26 08:36:24;;;;;;;15.27;8.13;;;;;;;17.50;100.00;99661.75;4929213;29;20040;-73
2022/10/26 08:38:51;;;;;;;11.88;8.38;;;;;;;16.02;100.00;99864.06;4929353;29;20039;-71
2022/10/26 08:41:19;;;;;;;13.15;7.68;;;;;;;15.80;100.00;100148.06;4929778;29;20116;-72
2022/10/26 08:44:10;;;;;;;11.60;7.88;;;;;;;16.27;100.00;100288.78;4929544;29;20119;-72
2022/10/26 08:46:42;;;;;;;16.55;7.60;;;;;;;16.57;100.00;100229.00;4919302;29;20048;-72
2022/10/26 08:49:31;;;;;;;12.63;9.55;;;;;;;16.27;100.00;100167.56;4929629;29;20485;-72
2022/10/26 08:52:00;;;;;;;18.80;8.88;;;;;;;15.47;100.00;100113.13;4932008;29;20049;-72
2022/10/26 08:54:39;;;;;;;13.85;8.55;;;;;;;15.67;100.00;100461.06;4929132;29;20071;-71
2022/10/26 08:57:15;;;;;;;15.40;8.55;;;;;;;15.38;100.00;100437.97;4927455;29;20035;-71
2022/10/26 09:00:04;;;;;;;14.18;8.93;;;;;;;16.06;100.00;100451.44;4927930;29;20485;-71
2022/10/26 09:02:30;;;;;;;15.25;9.20;;;;;;;15.23;100.00;100367.41;4928949;29;20078;-72
2022/10/26 09:04:58;;;;;;;15.15;8.60;;;;;;;15.36;100.00;100518.06;4928773;29;20059;-72
2022/10/26 09:07:35;;;;;;;14.80;8.82;;;;;;;15.90;100.00;100592.66;4933831;29;20502;-71
2022/10/26 09:10:22;;;;;;;14.43;9.02;;;;;;;16.51;100.00;100555.94;4938843;29;20031;-71
2022/10/26 09:13:14;;;;;;;16.23;9.10;;;;;;;16.35;100.00;100540.97;4948020;28;20047;-71
2022/10/26 09:15:48;;;;;;;17.48;9.60;;;;;;;15.68;100.00;100356.94;4926057;28;20512;-72
2022/10/26 09:18:37;;;;;;;15.55;8.55;;;;;;;17.16;100.00;100504.84;4928362;29;20441;-74
2022/10/26 09:21:32;;;;;;;14.07;8.80;;;;;;;16.59;100.00;99998.69;4927492;29;20374;-71
2022/10/26 09:24:13;;;;;;;13.75;9.10;;;;;;;16.57;100.00;100458.88;4931438;29;20031;-72
2022/10/26 09:26:58;;;;;;;19.35;10.23;;;;;;;16.41;100.00;100546.38;4930863;28;20114;-71
2022/10/26 09:29:39;;;;;;;13.57;8.38;;;;;;;16.64;100.00;100448.09;4915576;29;20032;-74
2022/10/26 09:32:17;;;;;;;15.27;9.05;;;;;;;16.72;100.00;100366.22;4928686;29;20557;-74
2022/10/26 09:34:55;;;;;;;13.48;8.43;;;;;;;16.70;100.00;100327.84;4927262;29;20513;-74
2022/10/26 09:37:31;;;;;;;12.63;7.70;;;;;;;18.31;100.00;100472.53;4942628;29;20690;-74
2022/10/26 09:40:06;;;;;;;13.40;7.55;;;;;;;19.08;100.00;100053.72;4942983;29;20042;-72
2022/10/26 09:42:43;;;;;;;11.52;7.95;;;;;;;17.07;100.00;99957.63;4928238;29;20047;-72
2022/10/26 09:45:30;;;;;;;16.27;8.02;;;;;;;16.09;100.00;100205.16;4926832;29;20046;-71
2022/10/26 09:48:00;;;;;;;13.68;8.48;;;;;;;15.12;100.00;100321.22;4926966;29;20028;-71
2022/10/26 09:50:32;;;;;;;13.95;9.77;;;;;;;14.77;100.00;100635.75;4928241;29;20474;-71
2022/10/26 09:52:58;;;;;;;13.80;8.50;;;;;;;15.39;100.00;100781.28;4927020;29;20122;-71
2022/10/26 09:55:23;;;;;;;15.60;8.63;;;;;;;16.66;100.00;100799.94;4928284;29;20099;-75
2022/10/26 09:57:51;;;;;;;14.43;7.97;;;;;;;17.45;100.00;100519.72;4931674;28;20386;-75
2022/10/26 10:00:19;;;;;;;14.05;8.43;;;;;;;16.69;100.00;100240.75;4926677;29;20475;-71
2022/10/26 10:02:50;;;;;;;10.55;7.28;;;;;;;16.83;100.00;100576.69;4928035;29;20101;-72
2022/10/26 10:05:33;;;;;;;14.48;7.80;;;;;;;16.60;100.00;100554.66;4933183;29;20039;-71
2022/10/26 10:08:15;;;;;;;9.93;6.97;;;;;;;16.69;100.00;100634.28;4932976;29;20094;-73
2022/10/26 10:11:07;;;;;;;11.40;7.63;;;;;;;17.26;100.00;100541.16;4930568;29;20067;-73
2022/10/26 10:13:35;;;;;;;12.52;6.93;;;;;;;17.70;100.00;100657.53;4939709;29;20501;-72
2022/10/26 10:16:20;;;;;;;10.75;6.70;;;;;;;17.08;100.00;100244.31;4932961;29;20030;-70
2022/10/26 10:18:54;;;;;;;14.60;7.18;;;;;;;17.15;100.00;100371.88;4932831;29;20142;-73
2022/10/26 10:21:21;;;;;;;18.23;7.38;;;;;;;16.92;100.00;100247.53;4936904;29;20036;-71
2022/10/26 10:23:48;;;;;;;;;;;;;;;17.97;100.00;100392.78;4947962;28;20043;-73
2022/10/26 10:26:13;;;;;;;14.00;6.10;;;;;;;18.05;100.00;100301.50;4929724;28;20463;-69
2022/10/26 10:28:41;;;;;;;15.70;6.88;;;;;;;17.43;100.00;100036.09;4931347;29;20035;-73
2022/10/26 10:31:19;;;;;;;10.43;6.28;;;;;;;17.23;100.00;100328.47;4933582;29;20334;-72
2022/10/26 10:33:45;;;;;;;13.50;6.00;;;;;;;17.13;100.00;100295.72;4933093;28;20040;-73
2022/10/26 10:36:17;;;;;;;11.10;6.32;;;;;;;17.31;100.00;100473.06;4933760;29;20047;-72
2022/10/26 10:38:46;;;;;;;19.33;6.93;;;;;;;17.92;100.00;100339.41;4938511;29;20051;-71
2022/10/26 10:41:18;;;;;;;10.35;5.85;;;;;;;17.97;100.00;100130.81;4937923;29;20032;-72
2022/10/26 10:43:58;;;;;;;12.07;6.13;;;;;;;17.32;100.00;100115.88;4932499;28;20031;-72
2022/10/26 10:46:26;;;;;;;11.20;5.13;;;;;;;17.75;100.00;100260.81;4933139;29;20035;-73
2022/10/26 10:49:02;;;;;;;11.25;4.43;;;;;;;18.36;100.00;100121.38;4934610;29;20046;-72
2022/10/26 10:51:33;;;;;;;11.10;4.68;;;;;;;17.48;100.00;100196.25;4930315;29;20031;-73
2022/10/26 10:53:59;;;;;;;12.32;4.53;;;;;;;17.68;100.00;100053.03;4943673;29;20035;-73
2022/10/26 10:56:33;;;;;;;9.10;4.87;;;;;;;16.84;100.00;100173.94;4920882;29;20392;-73
2022/10/26 10:59:06;;;;;;;10.68;5.00;;;;;;;17.90;100.00;100479.25;4938827;28;20070;-71
2022/10/26 11:01:38;;;;;;;6.57;3.22;;;;;;;17.48;100.00;100173.84;4934895;29;20086;-70
2022/10/26 11:04:51;;;;;;;8.85;3.55;;;;;;;16.77;100.00;100049.13;4933461;29;20042;-72
2022/10/26 11:07:17;;;;;;;6.75;3.17;;;;;;;17.58;100.00;100329.88;4919633;29;20544;-73
2022/10/26 11:09:45;;;;;;;5.38;3.60;;;;;;;17.84;100.00;100159.63;4898493;29;20509;-74
2022/10/26 11:12:16;;;;;;;9.55;4.30;;;;;;;17.02;100.00;100083.38;4930430;29;20216;-74
2022/10/26 11:14:51;;;;;;;13.18;3.97;;;;;;;17.57;100.00;100253.50;4941496;28;20074;-74
2022/10/26 11:17:44;;;;;;;7.90;3.90;;;;;;;17.68;99.98;100173.69;4938602;28;20095;-73
2022/10/26 11:20:19;;;;;;;13.98;3.70;;;;;;;18.03;96.95;100054.28;4929813;28;20055;-73
2022/10/26 11:23:03;;;;;;;6.53;3.07;;;;;;;17.07;98.26;99954.94;4923619;29;20044;-73
2022/10/26 11:25:46;;;;;;;11.68;4.05;;;;;;;16.32;100.00;100167.78;4950973;28;20039;-72
2022/10/26 11:28:29;;;;;;;10.32;3.80;;;;;;;17.51;100.00;100460.31;4936429;29;20044;-72